Terminal Aerodrome Forecast
Issued by NWS Memphis, TN

Home | Current Version | Previous Version | Text Only | Print | Product List | Glossary On
Versions: 1 2 3 4 5 6 7 8 9 10 11 12 13 14 15
000
FTUS44 KMEG 300530
TAFJBR
TAF
KJBR 300530Z 3006/3106 03005KT P6SM SCT060 BKN150
     FM300900 04010KT P6SM SCT250
     FM310100 03004KT P6SM SKC=

USA.gov is the U.S. government's official web portal to all federal, state and local government web resources and services.